createdAt,value
2018-07-06T00:02:19.100Z,2.90
2018-07-06T00:04:56.590Z,3.10
2018-07-06T00:07:33.169Z,2.70
2018-07-06T00:10:09.961Z,2.77
2018-07-06T00:12:46.435Z,2.90
2018-07-06T00:15:23.388Z,2.73
2018-07-06T00:17:59.806Z,3.10
2018-07-06T00:20:36.254Z,3.00
2018-07-06T00:23:11.487Z,2.93
2018-07-06T00:25:48.336Z,3.20
2018-07-06T00:28:26.083Z,3.10
2018-07-06T00:31:02.595Z,2.83
2018-07-06T00:33:36.191Z,2.97
2018-07-06T00:36:10.163Z,3.40
2018-07-06T00:38:43.547Z,3.23
2018-07-06T00:41:17.101Z,3.10
2018-07-06T00:43:50.595Z,3.40
2018-07-06T00:46:24.091Z,3.37
2018-07-06T00:48:57.542Z,3.70
2018-07-06T00:51:30.971Z,3.53
2018-07-06T00:54:04.484Z,3.90
2018-07-06T00:56:37.980Z,4.00
2018-07-06T00:59:11.466Z,3.70
2018-07-06T01:01:44.958Z,3.40
2018-07-06T01:04:18.318Z,3.60
2018-07-06T01:06:51.712Z,3.80
2018-07-06T01:09:25.127Z,4.00
2018-07-06T01:12:02.948Z,4.03
2018-07-06T01:14:36.567Z,3.90
2018-07-06T01:17:14.421Z,3.93
2018-07-06T01:19:47.971Z,3.73
2018-07-06T01:22:21.467Z,3.67
2018-07-06T01:24:54.901Z,3.70
2018-07-06T01:27:28.464Z,4.03
2018-07-06T01:30:05.394Z,4.10
2018-07-06T01:32:39.032Z,4.30
2018-07-06T01:35:12.507Z,4.13
2018-07-06T01:37:46.187Z,3.87
2018-07-06T01:40:19.804Z,4.20
2018-07-06T01:42:53.394Z,4.40
2018-07-06T01:45:27.070Z,4.70
2018-07-06T01:48:00.618Z,4.57
2018-07-06T01:50:34.110Z,4.40
2018-07-06T01:53:07.790Z,4.40
2018-07-06T01:55:41.437Z,4.00
2018-07-06T01:58:15.044Z,4.17
2018-07-06T02:00:48.611Z,4.60
2018-07-06T02:03:22.215Z,4.17
2018-07-06T02:05:56.010Z,4.37
2018-07-06T02:08:29.639Z,4.20
2018-07-06T02:11:03.355Z,4.27
2018-07-06T02:13:36.987Z,4.07
2018-07-06T02:16:10.523Z,4.20
2018-07-06T02:18:44.098Z,4.20
2018-07-06T02:21:17.871Z,3.97
2018-07-06T02:23:51.430Z,4.37
2018-07-06T02:26:25.217Z,4.27
2018-07-06T02:28:58.769Z,4.33
2018-07-06T02:31:32.363Z,4.43
2018-07-06T02:34:05.936Z,4.50
2018-07-06T02:36:39.467Z,4.47
2018-07-06T02:39:13.005Z,4.67
2018-07-06T02:41:46.563Z,4.90
2018-07-06T02:44:20.174Z,3.90
2018-07-06T02:46:53.621Z,4.77
2018-07-06T02:49:27.242Z,4.37
2018-07-06T02:52:00.730Z,4.60
2018-07-06T02:54:34.400Z,4.37
2018-07-06T02:57:08.020Z,4.70
2018-07-06T02:59:41.634Z,4.57
2018-07-06T03:02:15.287Z,4.37
2018-07-06T03:04:48.878Z,4.50
2018-07-06T03:07:22.443Z,4.70
2018-07-06T03:09:56.010Z,4.90
2018-07-06T03:12:29.540Z,4.37
2018-07-06T03:15:03.246Z,4.70
2018-07-06T03:17:36.996Z,4.50
2018-07-06T03:20:10.670Z,4.60
2018-07-06T03:22:44.423Z,4.73
2018-07-06T03:25:17.987Z,4.20
2018-07-06T03:27:51.596Z,4.20
2018-07-06T03:30:25.208Z,4.87
2018-07-06T03:32:58.754Z,4.60
2018-07-06T03:35:32.292Z,4.27
2018-07-06T03:38:05.875Z,4.70
2018-07-06T03:40:39.455Z,4.63
2018-07-06T03:43:13.064Z,4.60
2018-07-06T03:45:46.639Z,4.63
2018-07-06T03:48:20.272Z,4.30
2018-07-06T03:50:53.851Z,4.17
2018-07-06T03:53:27.382Z,4.47
2018-07-06T03:56:00.950Z,4.40
2018-07-06T03:58:34.538Z,4.37
2018-07-06T04:01:08.115Z,4.70
2018-07-06T04:03:41.785Z,4.50
2018-07-06T04:06:15.339Z,4.30
2018-07-06T04:08:48.862Z,4.40
2018-07-06T04:11:22.459Z,4.03
2018-07-06T04:13:56.339Z,4.50
2018-07-06T04:16:29.922Z,4.20
2018-07-06T04:19:07.905Z,4.43
2018-07-06T04:21:41.514Z,4.30
2018-07-06T04:24:15.479Z,4.13
2018-07-06T04:26:48.983Z,4.00
2018-07-06T04:29:22.568Z,3.90
2018-07-06T04:31:56.009Z,4.17
2018-07-06T04:34:29.597Z,4.30
2018-07-06T04:37:03.174Z,4.10
2018-07-06T04:39:36.733Z,4.33
2018-07-06T04:42:10.335Z,4.17
2018-07-06T04:44:44.005Z,4.00
2018-07-06T04:47:17.556Z,3.90
2018-07-06T04:49:51.109Z,3.70
2018-07-06T04:52:24.599Z,3.57
2018-07-06T04:54:58.093Z,4.10
2018-07-06T04:57:31.709Z,3.87
2018-07-06T05:00:05.439Z,3.77
2018-07-06T05:02:39.099Z,3.97
2018-07-06T05:05:12.750Z,3.97
2018-07-06T05:07:46.461Z,3.67
2018-07-06T05:10:20.110Z,3.73
2018-07-06T05:12:53.645Z,3.53
2018-07-06T05:15:27.455Z,4.10
2018-07-06T05:18:01.104Z,3.40
2018-07-06T05:20:34.572Z,3.70
2018-07-06T05:23:08.171Z,3.60
2018-07-06T05:25:41.700Z,3.93
2018-07-06T05:28:15.266Z,3.77
2018-07-06T05:30:48.881Z,3.63
2018-07-06T05:33:22.729Z,4.00
2018-07-06T05:35:56.382Z,3.80
2018-07-06T05:38:30.333Z,3.83
2018-07-06T05:41:03.942Z,3.73
2018-07-06T05:43:37.489Z,4.03
2018-07-06T05:46:10.970Z,4.10
2018-07-06T05:48:44.511Z,4.20
2018-07-06T05:51:18.088Z,4.17
2018-07-06T05:53:54.319Z,3.90
2018-07-06T05:59:01.539Z,4.00
2018-07-06T06:01:35.215Z,4.57
2018-07-06T06:04:08.756Z,4.27
2018-07-06T06:06:42.304Z,4.57
2018-07-06T06:09:09.998Z,4.23
2018-07-06T06:11:38.138Z,4.20
2018-07-06T06:14:06.182Z,4.30
2018-07-06T06:16:34.257Z,4.30
2018-07-06T06:19:02.365Z,4.50
2018-07-06T06:21:30.424Z,4.50
2018-07-06T06:23:58.526Z,4.50
2018-07-06T06:26:29.364Z,4.53
2018-07-06T06:28:57.434Z,5.17
2018-07-06T06:31:25.770Z,5.77
2018-07-06T06:33:53.951Z,6.20
2018-07-06T06:36:21.969Z,7.10
2018-07-06T06:38:50.046Z,6.23
2018-07-06T06:41:18.405Z,6.10
2018-07-06T06:43:46.490Z,6.40
2018-07-06T06:46:14.580Z,6.17
2018-07-06T06:48:42.733Z,6.57
2018-07-06T06:51:11.167Z,6.17
2018-07-06T06:53:39.831Z,6.30
2018-07-06T06:56:07.960Z,6.30
2018-07-06T06:58:36.099Z,5.90
2018-07-06T07:01:04.255Z,5.90
2018-07-06T07:03:32.291Z,6.60
2018-07-06T07:06:00.366Z,5.70
2018-07-06T07:08:28.383Z,5.80
2018-07-06T07:10:56.591Z,5.83
2018-07-06T07:13:24.737Z,6.20
2018-07-06T07:15:52.769Z,6.00
2018-07-06T07:18:20.762Z,5.60
2018-07-06T07:20:48.743Z,5.80
2018-07-06T07:23:16.737Z,5.70
2018-07-06T07:25:44.780Z,5.57
2018-07-06T07:28:13.097Z,5.67
2018-07-06T07:30:41.103Z,5.53
2018-07-06T07:33:09.137Z,5.20
2018-07-06T07:35:37.113Z,5.60
2018-07-06T07:38:05.149Z,5.60
2018-07-06T07:40:33.132Z,5.50
2018-07-06T07:43:01.145Z,5.30
2018-07-06T07:45:29.139Z,5.50
2018-07-06T07:47:57.142Z,5.80
2018-07-06T07:50:25.182Z,5.63
2018-07-06T07:52:58.771Z,5.33
2018-07-06T07:55:26.763Z,5.53
2018-07-06T07:57:54.779Z,5.57
2018-07-06T08:00:22.836Z,5.30
2018-07-06T08:02:50.778Z,5.80
2018-07-06T08:05:18.804Z,5.90
2018-07-06T08:07:46.867Z,5.27
2018-07-06T08:10:14.885Z,5.43
2018-07-06T08:12:42.889Z,5.07
2018-07-06T08:15:10.921Z,5.63
2018-07-06T08:17:38.897Z,4.90
2018-07-06T08:20:06.910Z,5.10
2018-07-06T08:22:34.969Z,5.00
2018-07-06T08:25:03.002Z,5.30
2018-07-06T08:27:31.028Z,5.13
2018-07-06T08:29:59.019Z,5.53
2018-07-06T08:32:27.042Z,4.90
2018-07-06T08:35:00.735Z,5.17
2018-07-06T08:37:35.999Z,4.87
2018-07-06T08:40:03.981Z,5.10
2018-07-06T08:42:33.003Z,4.80
2018-07-06T08:45:01.375Z,4.90
2018-07-06T08:47:29.493Z,5.10
2018-07-06T08:49:58.274Z,5.10
2018-07-06T08:52:26.564Z,5.63
2018-07-06T08:54:54.593Z,4.90
2018-07-06T08:57:23.695Z,4.77
2018-07-06T08:59:52.197Z,4.70
2018-07-06T09:02:20.498Z,4.50
2018-07-06T09:07:33.795Z,4.60
2018-07-06T09:10:02.134Z,5.00
2018-07-06T09:12:30.117Z,4.67
2018-07-06T09:14:58.567Z,4.73
2018-07-06T09:17:26.727Z,5.03
2018-07-06T09:19:55.785Z,4.63
2018-07-06T09:22:23.776Z,4.23
2018-07-06T09:24:54.044Z,4.70
2018-07-06T09:27:22.065Z,4.23
2018-07-06T09:29:50.056Z,4.73
2018-07-06T09:32:18.063Z,4.70
2018-07-06T09:34:46.094Z,5.00
2018-07-06T09:37:14.115Z,4.60
2018-07-06T09:39:42.810Z,4.77
2018-07-06T09:42:10.867Z,4.90
2018-07-06T09:44:38.879Z,4.50
2018-07-06T09:47:06.909Z,4.47
2018-07-06T09:49:34.907Z,4.20
2018-07-06T09:52:02.942Z,4.20
2018-07-06T09:54:30.951Z,4.50
2018-07-06T09:56:58.939Z,4.23
2018-07-06T09:59:26.944Z,4.00
2018-07-06T10:01:54.994Z,4.20
2018-07-06T10:04:23.071Z,4.27
2018-07-06T10:06:51.003Z,3.77
2018-07-06T10:09:19.014Z,4.00
2018-07-06T10:11:47.127Z,3.40
2018-07-06T10:14:15.114Z,3.77
2018-07-06T10:16:43.141Z,3.57
2018-07-06T10:19:11.115Z,3.80
2018-07-06T10:21:39.112Z,3.57
2018-07-06T10:24:07.157Z,3.60
2018-07-06T10:26:35.226Z,3.57
2018-07-06T10:29:07.862Z,3.07
2018-07-06T10:31:42.149Z,3.37
2018-07-06T10:34:10.191Z,3.23
2018-07-06T10:36:38.180Z,3.00
2018-07-06T10:39:06.208Z,2.60
2018-07-06T10:41:34.226Z,3.20
2018-07-06T10:44:02.236Z,2.83
2018-07-06T10:46:30.222Z,2.90
2018-07-06T10:48:58.242Z,2.60
2018-07-06T10:51:26.348Z,2.57
2018-07-06T10:53:54.375Z,2.90
2018-07-06T10:56:22.385Z,2.90
2018-07-06T10:58:50.385Z,2.60
2018-07-06T11:01:18.388Z,2.50
2018-07-06T11:03:46.396Z,2.60
2018-07-06T11:06:14.406Z,2.47
2018-07-06T11:08:42.435Z,2.20
2018-07-06T11:11:10.418Z,2.50
2018-07-06T11:13:38.483Z,2.20
2018-07-06T11:16:06.659Z,2.37
2018-07-06T11:18:34.655Z,1.90
2018-07-06T11:21:02.687Z,2.23
2018-07-06T11:23:30.771Z,2.03
2018-07-06T11:25:58.811Z,2.30
2018-07-06T11:28:26.820Z,1.80
2018-07-06T11:30:54.807Z,1.73
2018-07-06T11:33:22.831Z,1.90
2018-07-06T11:35:50.851Z,1.80
2018-07-06T11:38:18.899Z,1.90
2018-07-06T11:40:46.907Z,1.80
2018-07-06T11:45:49.539Z,2.00
2018-07-06T11:48:17.510Z,2.20
2018-07-06T11:50:45.595Z,1.83
2018-07-06T11:53:13.592Z,2.10
2018-07-06T11:55:41.588Z,2.07
2018-07-06T11:58:09.614Z,1.60
2018-07-06T12:00:37.559Z,2.00
2018-07-06T12:03:05.585Z,2.00
2018-07-06T12:05:33.574Z,1.90
2018-07-06T12:08:01.585Z,1.60
2018-07-06T12:10:29.648Z,1.70
2018-07-06T12:12:57.626Z,1.83
2018-07-06T12:15:25.636Z,2.17
2018-07-06T12:17:53.610Z,1.73
2018-07-06T12:20:21.602Z,1.73
2018-07-06T12:22:49.653Z,1.00
2018-07-06T12:25:17.642Z,1.20
2018-07-06T12:27:45.653Z,1.20
2018-07-06T12:30:13.656Z,1.40
2018-07-06T12:32:41.743Z,0.93
2018-07-06T12:35:09.799Z,1.17
2018-07-06T12:37:37.851Z,1.50
2018-07-06T12:40:05.835Z,1.30
2018-07-06T12:42:33.826Z,1.70
2018-07-06T12:45:01.823Z,1.20
2018-07-06T12:47:29.879Z,1.00
2018-07-06T12:49:57.862Z,1.00
2018-07-06T12:52:25.862Z,1.20
2018-07-06T12:54:53.838Z,1.17
2018-07-06T12:57:21.869Z,1.10
2018-07-06T12:59:49.974Z,1.30
2018-07-06T13:02:17.972Z,1.27
2018-07-06T13:04:46.122Z,2.00
2018-07-06T13:07:14.734Z,1.13
2018-07-06T13:09:42.732Z,1.50
2018-07-06T13:12:10.835Z,1.40
2018-07-06T13:14:39.066Z,0.97
2018-07-06T13:17:07.081Z,1.50
2018-07-06T13:19:35.086Z,1.07
2018-07-06T13:22:03.078Z,0.80
2018-07-06T13:24:31.079Z,1.10
2018-07-06T13:26:59.820Z,1.47
2018-07-06T13:29:27.818Z,1.33
2018-07-06T13:31:55.815Z,1.57
2018-07-06T13:34:23.874Z,1.70
2018-07-06T13:36:51.915Z,1.40
2018-07-06T13:39:20.006Z,1.10
2018-07-06T13:41:48.025Z,1.40
2018-07-06T13:44:15.986Z,1.47
2018-07-06T13:46:44.026Z,1.00
2018-07-06T13:49:12.096Z,1.23
2018-07-06T13:51:40.148Z,1.03
2018-07-06T13:54:08.179Z,1.13
2018-07-06T13:56:36.380Z,1.23
2018-07-06T13:59:04.541Z,1.30
2018-07-06T14:01:32.664Z,1.20
2018-07-06T14:04:00.697Z,1.43
2018-07-06T14:06:28.702Z,1.40
2018-07-06T14:08:56.719Z,1.17
2018-07-06T14:11:24.716Z,1.30
2018-07-06T14:13:52.726Z,1.43
2018-07-06T14:16:20.748Z,1.40
2018-07-06T14:18:48.743Z,1.33
2018-07-06T14:21:16.802Z,1.53
2018-07-06T14:23:44.862Z,1.40
2018-07-06T14:26:13.218Z,1.27
2018-07-06T14:28:41.222Z,1.43
2018-07-06T14:31:09.210Z,1.20
2018-07-06T14:33:37.266Z,1.10
2018-07-06T14:36:05.377Z,1.00
2018-07-06T14:38:33.474Z,1.20
2018-07-06T14:41:01.548Z,1.53
2018-07-06T14:43:29.594Z,1.60
2018-07-06T14:45:57.631Z,1.47
2018-07-06T14:48:25.762Z,1.10
2018-07-06T14:50:53.762Z,1.67
2018-07-06T14:53:21.833Z,1.30
2018-07-06T14:58:38.383Z,1.30
2018-07-06T15:01:06.418Z,1.00
2018-07-06T15:03:34.507Z,1.20
2018-07-06T15:06:02.544Z,1.37
2018-07-06T15:08:30.574Z,1.20
2018-07-06T15:10:58.775Z,1.83
2018-07-06T15:13:26.874Z,1.40
2018-07-06T15:15:55.342Z,1.10
2018-07-06T15:18:23.803Z,1.20
2018-07-06T15:20:51.906Z,1.20
2018-07-06T15:23:20.035Z,0.90
2018-07-06T15:25:48.136Z,1.20
2018-07-06T15:28:16.223Z,1.20
2018-07-06T15:30:44.250Z,1.53
2018-07-06T15:33:12.370Z,1.40
2018-07-06T15:35:42.623Z,1.30
2018-07-06T15:38:13.732Z,1.10
2018-07-06T15:40:41.905Z,1.07
2018-07-06T15:45:38.660Z,1.00
2018-07-06T15:48:06.767Z,1.33
2018-07-06T15:50:34.891Z,1.40
2018-07-06T15:53:03.035Z,4.90
2018-07-06T15:55:31.140Z,35.10
2018-07-06T15:57:59.215Z,201.40
2018-07-06T16:00:27.299Z,259.27
2018-07-06T16:02:55.379Z,54.90
2018-07-06T16:05:23.374Z,186.70
2018-07-06T16:07:51.411Z,307.13
2018-07-06T16:10:19.407Z,264.80
2018-07-06T16:12:47.410Z,223.43
2018-07-06T16:15:15.411Z,168.80
2018-07-06T16:17:43.416Z,119.57
2018-07-06T16:20:11.447Z,256.70
2018-07-06T16:22:39.458Z,180.73
2018-07-06T16:25:07.499Z,101.27
2018-07-06T16:27:35.482Z,74.70
2018-07-06T16:30:03.531Z,132.97
2018-07-06T16:32:31.556Z,81.43
2018-07-06T16:34:59.558Z,80.73
2018-07-06T16:37:27.569Z,68.03
2018-07-06T16:39:55.643Z,38.70
2018-07-06T16:42:23.649Z,46.80
2018-07-06T16:44:51.707Z,31.90
2018-07-06T16:47:19.780Z,31.47
2018-07-06T16:49:47.767Z,16.13
2018-07-06T16:52:15.809Z,16.97
2018-07-06T16:54:43.838Z,18.47
2018-07-06T16:57:12.036Z,23.80
2018-07-06T16:59:40.103Z,14.63
2018-07-06T17:02:08.163Z,8.87
2018-07-06T17:04:36.188Z,11.00
2018-07-06T17:07:04.206Z,10.60
2018-07-06T17:09:32.259Z,11.90
2018-07-06T17:12:00.254Z,11.47
2018-07-06T17:14:28.327Z,9.07
2018-07-06T17:16:56.458Z,8.73
2018-07-06T17:19:24.589Z,5.43
2018-07-06T17:21:52.749Z,7.40
2018-07-06T17:24:20.850Z,5.03
2018-07-06T17:26:50.505Z,3.67
2018-07-06T17:29:18.595Z,3.73
2018-07-06T17:31:46.648Z,3.57
2018-07-06T17:34:14.716Z,4.00
2018-07-06T17:36:42.768Z,4.40
2018-07-06T17:39:10.842Z,3.27
2018-07-06T17:41:38.927Z,2.10
2018-07-06T17:44:06.951Z,2.07
2018-07-06T17:46:35.075Z,1.57
2018-07-06T17:49:03.249Z,1.73
2018-07-06T17:51:31.350Z,1.50
2018-07-06T17:53:59.472Z,1.47
2018-07-06T17:56:27.906Z,1.63
2018-07-06T17:58:55.840Z,1.50
2018-07-06T18:01:38.559Z,1.70
2018-07-06T18:04:06.609Z,1.70
2018-07-06T18:06:34.728Z,1.60
2018-07-06T18:09:04.001Z,1.27
2018-07-06T18:11:32.070Z,1.63
2018-07-06T18:14:00.105Z,1.50
2018-07-06T18:16:28.088Z,1.40
2018-07-06T18:18:56.081Z,1.77
2018-07-06T18:21:24.063Z,1.37
2018-07-06T18:23:52.130Z,1.40
2018-07-06T18:26:20.171Z,1.57
2018-07-06T18:28:48.174Z,1.27
2018-07-06T18:31:16.189Z,1.77
2018-07-06T18:33:44.235Z,1.33
2018-07-06T18:36:12.269Z,1.60
2018-07-06T18:38:40.262Z,1.80
2018-07-06T18:41:08.302Z,1.60
2018-07-06T18:43:36.327Z,2.80
2018-07-06T18:46:04.332Z,1.70
2018-07-06T18:48:32.392Z,1.60
2018-07-06T18:51:00.499Z,1.70
2018-07-06T18:53:28.525Z,1.80
2018-07-06T18:55:56.538Z,2.13
2018-07-06T18:58:24.554Z,2.53
2018-07-06T19:00:52.582Z,2.73
2018-07-06T19:03:20.635Z,4.47
2018-07-06T19:05:48.689Z,3.80
2018-07-06T19:08:16.804Z,3.13
2018-07-06T19:10:44.890Z,3.43
2018-07-06T19:13:13.009Z,3.43
2018-07-06T19:15:41.497Z,3.00
2018-07-06T19:18:10.005Z,2.50
2018-07-06T19:20:38.212Z,2.70
2018-07-06T19:23:06.318Z,2.50
2018-07-06T19:25:34.453Z,2.00
2018-07-06T19:28:02.501Z,2.37
2018-07-06T19:30:30.701Z,2.40
2018-07-06T19:32:59.301Z,2.70
2018-07-06T19:35:27.492Z,2.33
2018-07-06T19:37:55.613Z,2.63
2018-07-06T19:40:23.845Z,2.50
2018-07-06T19:42:51.977Z,1.70
2018-07-06T19:45:20.108Z,2.10
2018-07-06T19:47:48.222Z,2.10
2018-07-06T19:50:16.502Z,3.30
2018-07-06T19:52:44.652Z,4.67
2018-07-06T19:55:12.753Z,3.30
2018-07-06T19:57:40.987Z,3.90
2018-07-06T20:02:31.773Z,2.63
2018-07-06T20:04:59.839Z,3.30
2018-07-06T20:07:27.931Z,3.30
2018-07-06T20:09:56.032Z,2.60
2018-07-06T20:12:24.330Z,4.00
2018-07-06T20:14:52.472Z,2.60
2018-07-06T20:19:55.228Z,2.70
2018-07-06T20:22:23.359Z,2.07
2018-07-06T20:24:51.515Z,2.23
2018-07-06T20:27:19.558Z,2.00
2018-07-06T20:29:47.616Z,1.57
2018-07-06T20:32:15.732Z,2.13
2018-07-06T20:34:43.824Z,1.50
2018-07-06T20:37:11.929Z,1.70
2018-07-06T20:39:39.963Z,1.80
2018-07-06T20:42:08.029Z,2.23
2018-07-06T20:44:36.190Z,2.17
2018-07-06T20:47:04.321Z,1.73
2018-07-06T20:49:32.452Z,1.77
2018-07-06T20:52:01.022Z,1.97
2018-07-06T20:54:29.266Z,2.27
2018-07-06T20:56:58.114Z,1.90
2018-07-06T20:59:26.277Z,1.90
2018-07-06T21:01:54.361Z,1.53
2018-07-06T21:04:22.499Z,1.90
2018-07-06T21:06:50.730Z,2.00
2018-07-06T21:09:18.948Z,2.33
2018-07-06T21:11:47.109Z,1.93
2018-07-06T21:14:15.251Z,1.80
2018-07-06T21:16:43.426Z,2.20
2018-07-06T21:19:11.458Z,1.73
2018-07-06T21:21:39.698Z,1.80
2018-07-06T21:24:07.783Z,1.77
2018-07-06T21:26:35.938Z,2.00
2018-07-06T21:29:04.150Z,2.00
2018-07-06T21:31:32.507Z,2.40
2018-07-06T21:34:00.587Z,2.07
2018-07-06T21:36:28.652Z,2.07
2018-07-06T21:38:56.693Z,1.73
2018-07-06T21:41:24.702Z,1.93
2018-07-06T21:43:52.755Z,1.90
2018-07-06T21:46:20.780Z,1.97
2018-07-06T21:48:48.793Z,1.83
2018-07-06T21:51:16.806Z,2.13
2018-07-06T21:53:44.808Z,1.67
2018-07-06T21:56:12.895Z,1.67
2018-07-06T21:58:40.928Z,1.60
2018-07-06T22:01:08.936Z,1.77
2018-07-06T22:03:36.962Z,1.93
2018-07-06T22:06:04.966Z,1.90
2018-07-06T22:08:33.242Z,1.57
2018-07-06T22:11:03.599Z,2.10
2018-07-06T22:13:31.581Z,1.60
2018-07-06T22:15:59.605Z,1.63
2018-07-06T22:18:27.673Z,1.87
2018-07-06T22:20:55.672Z,1.50
2018-07-06T22:23:23.666Z,1.53
2018-07-06T22:25:51.678Z,1.40
2018-07-06T22:28:20.103Z,1.63
2018-07-06T22:30:48.184Z,1.63
2018-07-06T22:33:16.216Z,1.97
2018-07-06T22:35:44.297Z,1.63
2018-07-06T22:38:12.296Z,1.70
2018-07-06T22:40:40.272Z,1.63
2018-07-06T22:43:08.279Z,1.60
2018-07-06T22:45:36.331Z,1.70
2018-07-06T22:48:04.335Z,1.43
2018-07-06T22:50:32.326Z,1.57
2018-07-06T22:53:00.353Z,1.33
2018-07-06T22:55:28.359Z,1.60
2018-07-06T22:57:56.381Z,1.23
2018-07-06T23:00:24.363Z,1.40
2018-07-06T23:02:57.654Z,1.20
2018-07-06T23:05:30.731Z,1.60
2018-07-06T23:08:03.200Z,1.40
2018-07-06T23:10:35.280Z,1.50
2018-07-06T23:13:08.370Z,1.40
2018-07-06T23:15:42.515Z,1.57
2018-07-06T23:18:14.887Z,1.80
2018-07-06T23:20:47.481Z,1.70
2018-07-06T23:23:19.853Z,1.73
2018-07-06T23:25:52.182Z,1.60
2018-07-06T23:28:24.433Z,1.70
2018-07-06T23:30:56.791Z,1.30
2018-07-06T23:33:29.876Z,1.40
2018-07-06T23:36:02.110Z,1.47
2018-07-06T23:38:34.995Z,1.30
2018-07-06T23:41:08.019Z,1.40
2018-07-06T23:43:39.960Z,1.50
2018-07-06T23:46:13.783Z,1.50
2018-07-06T23:48:46.395Z,1.40
2018-07-06T23:51:19.098Z,1.87
2018-07-06T23:53:51.753Z,1.20
2018-07-06T23:56:24.623Z,1.60
2018-07-06T23:58:57.500Z,1.60
